Time;durP1;ratioP1;P1;durP2;ratioP2;P2;SDS_P1;SDS_P2;PMS_P1;PMS_P2;Temp;Humidity;BMP_temperature;BMP_pressure;BME280_temperature;BME280_humidity;BME280_pressure;Samples;Min_cycle;Max_cycle;Signal;HPM_P1;HPM_P2
2021/12/01 00:01:41;;;;;;;2.42;2.10;;;10.40;99.90;;;;;;4053104;29;20196;-94
2021/12/01 00:03:42;;;;;;;1.88;1.42;;;10.40;99.90;;;;;;4053370;29;20185;-94
2021/12/01 00:05:43;;;;;;;2.50;2.00;;;10.30;99.90;;;;;;4053080;29;20204;-92
2021/12/01 00:07:44;;;;;;;2.25;1.90;;;10.30;99.90;;;;;;4053141;29;20173;-92
2021/12/01 00:09:45;;;;;;;2.00;1.80;;;10.20;99.90;;;;;;4069046;29;20633;-92
2021/12/01 00:11:45;;;;;;;2.47;1.80;;;10.20;99.90;;;;;;4053307;29;20172;-92
2021/12/01 00:13:46;;;;;;;3.63;1.60;;;10.20;99.90;;;;;;4052705;29;20213;-94
2021/12/01 00:15:49;;;;;;;1.88;1.40;;;10.10;99.90;;;;;;4053452;29;20181;-91
2021/12/01 00:17:53;;;;;;;1.42;1.27;;;10.10;99.90;;;;;;4053424;29;20215;-91
2021/12/01 00:19:54;;;;;;;1.60;1.30;;;10.10;99.90;;;;;;4053338;29;20177;-91
2021/12/01 00:21:55;;;;;;;2.97;1.80;;;10.20;99.90;;;;;;4068896;29;20297;-91
2021/12/01 00:23:55;;;;;;;1.67;1.25;;;10.20;99.90;;;;;;4053000;29;20200;-94
2021/12/01 00:25:56;;;;;;;1.10;1.00;;;10.20;99.90;;;;;;4053309;29;20177;-92
2021/12/01 00:27:57;;;;;;;1.25;1.00;;;10.10;99.90;;;;;;4053076;29;20173;-95
2021/12/01 00:29:58;;;;;;;1.30;1.15;;;10.20;99.90;;;;;;4053196;29;20203;-95
2021/12/01 00:31:59;;;;;;;1.20;1.10;;;10.10;99.90;;;;;;4052969;29;20279;-91
2021/12/01 00:34:01;;;;;;;2.20;1.20;;;10.20;99.90;;;;;;4053036;29;20169;-91
2021/12/01 00:36:02;;;;;;;1.00;0.77;;;10.20;99.90;;;;;;4053100;29;20710;-92
2021/12/01 00:38:06;;;;;;;0.88;0.80;;;10.20;99.90;;;;;;4053805;29;20191;-91
2021/12/01 00:40:10;;;;;;;1.65;1.10;;;10.30;99.90;;;;;;4053052;29;20172;-92
2021/12/01 00:42:11;;;;;;;2.22;1.13;;;10.30;99.90;;;;;;4053216;29;20217;-91
2021/12/01 00:44:12;;;;;;;0.90;0.80;;;10.10;99.90;;;;;;4054068;29;20245;-94
2021/12/01 00:46:19;;;;;;;1.65;1.10;;;10.20;99.90;;;;;;4053491;29;20173;-94
2021/12/01 00:48:20;;;;;;;1.83;0.77;;;10.10;99.90;;;;;;4053454;29;20189;-92
2021/12/01 00:50:26;;;;;;;1.70;1.20;;;10.10;99.90;;;;;;4068872;29;20670;-93
2021/12/01 00:52:27;;;;;;;3.72;1.40;;;10.00;99.90;;;;;;4068549;29;20164;-93
2021/12/01 00:54:30;;;;;;;2.90;1.55;;;10.00;99.90;;;;;;4053179;29;20212;-95
2021/12/01 00:56:31;;;;;;;1.33;1.23;;;9.90;99.90;;;;;;4053640;29;20181;-92
2021/12/01 00:58:32;;;;;;;2.67;1.42;;;9.90;99.90;;;;;;4053073;29;20380;-92
2021/12/01 01:00:33;;;;;;;1.33;1.23;;;9.80;99.90;;;;;;4052998;29;20170;-96
2021/12/01 01:02:35;;;;;;;1.90;1.80;;;9.80;99.90;;;;;;4069160;29;20204;-94
2021/12/01 01:04:35;;;;;;;2.63;1.40;;;9.70;99.90;;;;;;4053041;29;20788;-91
2021/12/01 01:06:41;;;;;;;2.65;1.38;;;9.70;99.90;;;;;;4052611;29;20185;-94
2021/12/01 01:08:42;;;;;;;2.40;1.30;;;9.80;99.90;;;;;;4053046;29;20166;-92
2021/12/01 01:17:36;;;;;;;4.03;1.63;;;9.80;99.90;;;;;;4068683;29;20184;-92
2021/12/01 01:19:38;;;;;;;3.92;1.40;;;9.80;99.90;;;;;;4052633;29;20621;-92
2021/12/01 01:21:44;;;;;;;1.38;1.08;;;9.60;99.90;;;;;;4052392;29;20217;-95
2021/12/01 01:23:45;;;;;;;2.58;1.88;;;9.60;99.90;;;;;;4053186;29;20173;-93
2021/12/01 01:25:45;;;;;;;2.15;1.95;;;9.50;99.90;;;;;;4055616;29;20185;-95
2021/12/01 01:27:49;;;;;;;3.25;2.20;;;9.50;99.90;;;;;;4056098;29;20666;-96
2021/12/01 01:29:49;;;;;;;2.47;2.28;;;9.60;99.90;;;;;;4071336;29;20577;-92
2021/12/01 01:31:53;;;;;;;3.63;2.40;;;9.60;99.90;;;;;;4056954;29;20259;-94
2021/12/01 01:33:54;;;;;;;4.10;2.47;;;9.50;99.90;;;;;;4056520;29;20184;-92
2021/12/01 01:35:55;;;;;;;4.75;2.10;;;9.40;99.90;;;;;;4055547;29;20181;-94
2021/12/01 01:37:56;;;;;;;4.95;2.72;;;9.50;99.90;;;;;;4071800;29;20219;-96
2021/12/01 01:39:59;;;;;;;4.97;2.47;;;9.40;99.90;;;;;;4071379;29;20241;-92
2021/12/01 01:42:00;;;;;;;3.33;2.33;;;9.40;99.90;;;;;;4055969;29;20274;-93
2021/12/01 01:44:04;;;;;;;2.67;2.00;;;9.40;99.90;;;;;;4056314;29;20176;-95
2021/12/01 01:46:06;;;;;;;2.50;2.13;;;9.30;99.90;;;;;;4055352;29;20181;-91
2021/12/01 01:48:14;;;;;;;2.40;2.00;;;9.20;99.90;;;;;;4055858;29;20184;-92
2021/12/01 01:50:28;;;;;;;2.85;2.33;;;9.20;99.90;;;;;;4055169;29;20184;-94
2021/12/01 01:52:29;;;;;;;4.82;2.53;;;9.20;99.90;;;;;;4055139;29;20181;-94
2021/12/01 01:54:31;;;;;;;5.60;1.90;;;9.20;99.90;;;;;;4055463;29;20192;-95
2021/12/01 01:56:32;;;;;;;3.05;2.30;;;9.30;99.90;;;;;;4055280;29;20241;-93
2021/12/01 01:58:33;;;;;;;3.15;2.20;;;9.20;99.90;;;;;;4054978;29;20189;-95
2021/12/01 02:00:45;;;;;;;2.70;2.30;;;9.30;99.90;;;;;;4055094;29;20191;-95
2021/12/01 02:02:49;;;;;;;4.85;2.47;;;9.30;99.90;;;;;;4054876;29;20216;-92
2021/12/01 02:04:51;;;;;;;3.63;1.92;;;9.40;99.90;;;;;;4070758;29;20263;-93
2021/12/01 02:06:52;;;;;;;2.97;2.50;;;9.30;99.90;;;;;;4070776;29;20192;-93
2021/12/01 02:08:57;;;;;;;4.18;2.20;;;9.30;99.90;;;;;;4070942;29;20211;-92
2021/12/01 02:11:01;;;;;;;3.53;3.00;;;9.30;99.90;;;;;;4070752;29;20172;-95
2021/12/01 02:13:01;;;;;;;2.40;1.52;;;9.30;99.90;;;;;;4070517;29;20184;-93
2021/12/01 02:15:02;;;;;;;3.47;2.57;;;9.20;99.90;;;;;;4055022;29;20205;-92
2021/12/01 02:17:03;;;;;;;4.65;2.13;;;9.20;99.90;;;;;;4055280;29;20276;-92
2021/12/01 02:19:05;;;;;;;2.35;1.98;;;9.10;99.90;;;;;;4055233;29;20563;-94
2021/12/01 02:21:15;;;;;;;2.07;1.80;;;9.10;99.90;;;;;;4054741;29;20192;-94
2021/12/01 02:23:16;;;;;;;2.97;2.40;;;9.00;99.90;;;;;;4054917;29;20192;-93
2021/12/01 02:25:17;;;;;;;4.93;2.97;;;9.00;99.90;;;;;;4054957;29;20224;-92
2021/12/01 02:27:17;;;;;;;2.20;2.00;;;9.00;99.90;;;;;;4054875;29;20185;-94
2021/12/01 02:29:22;;;;;;;3.77;2.80;;;9.00;99.90;;;;;;4054969;29;20271;-93
2021/12/01 02:31:26;;;;;;;5.03;2.90;;;9.00;99.90;;;;;;4054514;29;20184;-92
2021/12/01 02:33:26;;;;;;;4.10;3.20;;;9.10;99.90;;;;;;4054622;29;20264;-93
2021/12/01 02:35:29;;;;;;;3.08;2.38;;;9.10;99.90;;;;;;4069245;29;20597;-94
2021/12/01 02:37:30;;;;;;;2.73;2.53;;;9.10;99.90;;;;;;4054701;29;20175;-93
2021/12/01 02:39:35;;;;;;;3.87;2.47;;;9.10;99.90;;;;;;4054621;29;20274;-93
2021/12/01 02:41:38;;;;;;;2.67;2.42;;;9.00;99.90;;;;;;4055134;29;20204;-95
2021/12/01 02:43:44;;;;;;;5.43;2.80;;;9.00;99.90;;;;;;4055121;29;20195;-92
2021/12/01 02:45:44;;;;;;;2.47;1.93;;;9.00;99.90;;;;;;4054506;29;20212;-95
2021/12/01 02:47:46;;;;;;;2.20;2.00;;;9.00;99.90;;;;;;4070503;29;20188;-92
2021/12/01 02:49:51;;;;;;;4.27;2.67;;;9.00;99.90;;;;;;4054554;29;20176;-93
2021/12/01 02:51:56;;;;;;;5.23;2.73;;;8.90;99.90;;;;;;4054542;29;20188;-92
2021/12/01 02:53:58;;;;;;;4.13;2.60;;;8.90;99.90;;;;;;4054368;29;20216;-93
2021/12/01 02:56:05;;;;;;;3.77;2.67;;;8.90;99.90;;;;;;4070218;29;20184;-94
2021/12/01 02:58:06;;;;;;;4.33;2.50;;;9.00;99.90;;;;;;4070021;29;20204;-93
2021/12/01 03:00:08;;;;;;;2.93;2.20;;;8.90;99.90;;;;;;4070086;29;20176;-93
2021/12/01 03:02:09;;;;;;;3.00;2.20;;;8.90;99.90;;;;;;4070112;29;20208;-94
2021/12/01 03:04:14;;;;;;;4.73;2.17;;;8.90;99.90;;;;;;4069924;29;20207;-93
2021/12/01 03:06:17;;;;;;;3.60;2.00;;;8.90;99.90;;;;;;4070134;29;20252;-93
2021/12/01 03:08:19;;;;;;;2.57;1.20;;;8.90;99.90;;;;;;4070342;29;20177;-94
2021/12/01 03:10:20;;;;;;;3.90;2.70;;;8.80;99.90;;;;;;4054949;29;20725;-93
2021/12/01 03:12:21;;;;;;;3.53;2.00;;;8.90;99.90;;;;;;4055092;29;20165;-95
2021/12/01 03:14:22;;;;;;;2.93;1.80;;;8.90;99.90;;;;;;4054401;29;20295;-92
2021/12/01 03:16:23;;;;;;;2.97;2.10;;;8.90;99.90;;;;;;4054046;29;20181;-93
2021/12/01 03:18:29;;;;;;;4.67;2.40;;;8.90;99.90;;;;;;4054208;29;20180;-93
2021/12/01 03:20:30;;;;;;;3.87;2.27;;;9.00;99.90;;;;;;4054532;29;20217;-93
2021/12/01 03:22:31;;;;;;;3.40;1.50;;;9.00;99.90;;;;;;4069620;29;20216;-94
2021/12/01 03:24:33;;;;;;;2.50;2.10;;;8.90;99.90;;;;;;4053817;29;20193;-93
2021/12/01 03:26:35;;;;;;;3.20;1.90;;;8.90;99.90;;;;;;4053893;29;20677;-93
2021/12/01 03:28:36;;;;;;;3.37;2.07;;;8.80;99.90;;;;;;4054256;29;20669;-93
2021/12/01 03:30:38;;;;;;;5.83;2.00;;;8.80;99.90;;;;;;4053985;29;20188;-93
2021/12/01 03:32:46;;;;;;;1.40;1.30;;;8.80;99.90;;;;;;4053841;29;20208;-95
2021/12/01 03:34:47;;;;;;;5.30;2.30;;;8.70;99.90;;;;;;4053788;29;20205;-93
2021/12/01 03:36:50;;;;;;;1.70;1.50;;;8.70;99.90;;;;;;4053615;29;20348;-95
2021/12/01 03:38:55;;;;;;;1.83;1.63;;;8.70;99.90;;;;;;4054240;29;20187;-94
2021/12/01 03:40:57;;;;;;;2.60;1.47;;;8.70;99.90;;;;;;4053611;29;20247;-93
2021/12/01 03:43:01;;;;;;;1.30;1.00;;;8.80;99.90;;;;;;4069014;29;20280;-94
2021/12/01 03:45:04;;;;;;;2.07;1.50;;;8.70;99.90;;;;;;4069127;29;20200;-92
2021/12/01 03:47:04;;;;;;;3.43;1.13;;;8.80;99.90;;;;;;4053745;29;20180;-94
2021/12/01 03:49:06;;;;;;;3.73;1.17;;;8.80;99.90;;;;;;4069332;29;20228;-93
2021/12/01 03:51:07;;;;;;;1.87;0.77;;;8.80;99.90;;;;;;4053643;29;20196;-95
2021/12/01 03:53:08;;;;;;;3.00;0.90;;;8.80;99.90;;;;;;4053705;29;20209;-92
2021/12/01 03:55:10;;;;;;;2.83;1.07;;;8.80;99.90;;;;;;4053243;29;20196;-93
2021/12/01 03:57:12;;;;;;;2.43;0.90;;;8.70;99.90;;;;;;4053636;29;20575;-93
2021/12/01 03:59:13;;;;;;;2.97;0.93;;;8.70;99.90;;;;;;4069276;29;20181;-92
2021/12/01 04:01:14;;;;;;;1.00;0.90;;;8.70;99.90;;;;;;4053178;29;20233;-93
2021/12/01 04:03:15;;;;;;;3.67;0.88;;;8.80;99.90;;;;;;4053593;29;20221;-92
2021/12/01 04:05:16;;;;;;;1.20;0.80;;;8.80;99.90;;;;;;4069102;29;20192;-95
2021/12/01 04:07:17;;;;;;;3.67;0.60;;;8.70;99.90;;;;;;4053132;29;20184;-94
2021/12/01 04:09:18;;;;;;;0.93;0.60;;;8.70;99.90;;;;;;4053324;29;20250;-91
2021/12/01 04:11:21;;;;;;;1.60;0.90;;;8.80;99.90;;;;;;4068968;29;20518;-95
2021/12/01 04:13:21;;;;;;;0.87;0.60;;;8.80;99.90;;;;;;4069418;29;20183;-95
2021/12/01 04:15:23;;;;;;;1.97;0.90;;;8.80;99.90;;;;;;4053007;29;20658;-95
2021/12/01 04:17:24;;;;;;;1.40;0.80;;;8.90;99.90;;;;;;4069620;29;20522;-92
2021/12/01 04:19:24;;;;;;;1.47;0.80;;;8.80;99.90;;;;;;4053085;29;20268;-92
2021/12/01 04:21:26;;;;;;;2.50;0.60;;;8.70;99.90;;;;;;4069465;29;20593;-95
2021/12/01 04:23:30;;;;;;;1.20;0.60;;;8.70;99.90;;;;;;4054033;29;20658;-93
2021/12/01 04:25:30;;;;;;;2.40;0.63;;;8.60;99.90;;;;;;4053347;29;20559;-92
2021/12/01 04:27:31;;;;;;;1.87;0.67;;;8.60;99.90;;;;;;4068850;29;20270;-95
2021/12/01 04:29:32;;;;;;;2.00;0.60;;;8.60;99.90;;;;;;4053451;29;20204;-94
2021/12/01 04:31:35;;;;;;;0.50;0.50;;;8.60;99.90;;;;;;4053579;29;20181;-92
2021/12/01 04:33:38;;;;;;;6.40;0.90;;;8.60;99.90;;;;;;4084427;29;20182;-94
2021/12/01 04:35:39;;;;;;;1.10;0.67;;;8.60;99.90;;;;;;4053337;29;20203;-93
2021/12/01 04:37:44;;;;;;;3.03;0.70;;;8.60;99.90;;;;;;4068628;29;20184;-95
2021/12/01 04:39:45;;;;;;;0.90;0.60;;;8.60;99.90;;;;;;4053687;29;20181;-94
2021/12/01 04:41:53;;;;;;;1.10;0.50;;;8.50;99.90;;;;;;4068846;29;20219;-93
2021/12/01 04:44:00;;;;;;;0.90;0.40;;;8.60;99.90;;;;;;4053141;29;20187;-94
2021/12/01 04:46:00;;;;;;;1.17;0.70;;;8.60;99.90;;;;;;4052956;29;20176;-92
2021/12/01 04:48:01;;;;;;;1.47;0.77;;;8.50;99.90;;;;;;4052868;29;20204;-94
2021/12/01 04:50:03;;;;;;;2.53;0.63;;;8.50;99.90;;;;;;4052847;29;20216;-93
2021/12/01 04:52:05;;;;;;;0.90;0.60;;;8.50;99.90;;;;;;4068448;29;20188;-92
2021/12/01 04:54:06;;;;;;;0.97;0.60;;;8.50;99.90;;;;;;4068517;29;20263;-92
2021/12/01 04:56:10;;;;;;;1.40;0.60;;;8.50;99.90;;;;;;4068528;29;20184;-94
2021/12/01 04:58:14;;;;;;;2.43;0.80;;;8.50;99.90;;;;;;4052921;29;20177;-93
2021/12/01 05:00:19;;;;;;;1.80;0.33;;;8.50;99.90;;;;;;4055495;29;20271;-92
2021/12/01 05:02:22;;;;;;;0.80;0.60;;;8.50;99.90;;;;;;4071353;29;20215;-95
2021/12/01 05:04:24;;;;;;;1.53;0.47;;;8.50;99.90;;;;;;4055675;29;20201;-93
2021/12/01 05:06:27;;;;;;;0.80;0.50;;;8.50;99.90;;;;;;4056023;29;20241;-93
2021/12/01 05:08:27;;;;;;;1.87;0.47;;;8.60;99.90;;;;;;4055855;29;20184;-93
2021/12/01 05:10:29;;;;;;;3.37;0.50;;;8.60;99.90;;;;;;4071130;29;20223;-93
2021/12/01 05:12:29;;;;;;;0.90;0.30;;;8.60;99.90;;;;;;4055586;29;20650;-95
2021/12/01 05:14:30;;;;;;;1.30;0.50;;;8.60;99.90;;;;;;4055360;29;20633;-94
2021/12/01 05:16:36;;;;;;;1.33;0.50;;;8.70;99.90;;;;;;4056098;29;20180;-93
2021/12/01 05:19:02;;;;;;;0.73;0.47;;;8.70;99.90;;;;;;4074671;29;20186;-92
2021/12/01 05:21:03;;;;;;;0.80;0.30;;;8.70;99.90;;;;;;4055550;29;20212;-94
2021/12/01 05:23:04;;;;;;;0.97;0.47;;;8.80;99.90;;;;;;4055608;29;20226;-93
2021/12/01 05:25:05;;;;;;;0.70;0.50;;;8.80;99.90;;;;;;4055325;29;20228;-93
2021/12/01 05:27:09;;;;;;;1.40;0.53;;;8.80;99.90;;;;;;4055152;29;20225;-93
2021/12/01 05:29:10;;;;;;;0.40;0.40;;;8.80;99.90;;;;;;4055407;29;20252;-94
2021/12/01 05:31:11;;;;;;;1.77;0.53;;;8.70;99.90;;;;;;4055490;29;20693;-93
2021/12/01 05:33:14;;;;;;;1.50;0.60;;;8.80;99.90;;;;;;4055239;29;20221;-92
2021/12/01 05:35:15;;;;;;;1.17;0.70;;;8.80;99.90;;;;;;4055168;29;20197;-93
2021/12/01 05:37:16;;;;;;;1.80;0.60;;;8.90;99.90;;;;;;4070788;29;20649;-94
2021/12/01 05:39:17;;;;;;;1.80;0.73;;;8.90;99.90;;;;;;4055212;29;20176;-93
2021/12/01 05:41:18;;;;;;;1.10;0.70;;;8.90;99.90;;;;;;4055346;29;20253;-94
2021/12/01 05:43:20;;;;;;;0.90;0.70;;;8.90;99.90;;;;;;4055171;29;20216;-94
2021/12/01 05:45:21;;;;;;;3.43;0.70;;;8.90;99.90;;;;;;4054897;29;20201;-94
2021/12/01 05:47:21;;;;;;;1.27;0.53;;;9.00;99.90;;;;;;4054947;29;20228;-94
2021/12/01 05:49:22;;;;;;;0.73;0.60;;;9.00;99.90;;;;;;4055318;29;20292;-93
2021/12/01 05:51:23;;;;;;;0.68;0.52;;;9.00;99.90;;;;;;4054637;29;20181;-93
2021/12/01 05:53:27;;;;;;;2.63;0.88;;;9.00;99.90;;;;;;4055194;29;20202;-95
2021/12/01 05:55:28;;;;;;;0.47;0.40;;;9.00;99.90;;;;;;4070506;29;20196;-94
2021/12/01 05:57:29;;;;;;;1.27;0.50;;;8.90;99.90;;;;;;4070610;29;20652;-94
2021/12/01 05:59:30;;;;;;;0.90;0.60;;;9.00;99.90;;;;;;4055117;29;20193;-93
2021/12/01 06:01:31;;;;;;;1.73;0.70;;;9.00;99.90;;;;;;4055260;29;20570;-93
2021/12/01 06:03:35;;;;;;;2.30;0.83;;;9.00;99.90;;;;;;4055000;29;20181;-92
2021/12/01 06:05:36;;;;;;;0.65;0.40;;;8.90;99.90;;;;;;4070683;29;20255;-91
2021/12/01 06:07:40;;;;;;;0.80;0.70;;;8.90;99.90;;;;;;4070624;29;20180;-94
2021/12/01 06:09:44;;;;;;;2.27;0.60;;;8.90;99.90;;;;;;4070052;29;20177;-93
2021/12/01 06:11:47;;;;;;;1.05;0.70;;;8.90;99.90;;;;;;4053917;29;20208;-93
2021/12/01 06:13:53;;;;;;;1.03;0.50;;;9.00;99.90;;;;;;4055157;29;20180;-94
2021/12/01 06:15:53;;;;;;;1.27;0.57;;;9.00;99.90;;;;;;4054829;29;20196;-92
2021/12/01 06:17:58;;;;;;;3.07;0.70;;;9.00;99.90;;;;;;4054529;29;20188;-94
2021/12/01 06:19:59;;;;;;;1.33;0.53;;;9.00;99.90;;;;;;4054815;29;20173;-92
2021/12/01 06:22:00;;;;;;;1.20;0.70;;;9.00;99.90;;;;;;4054370;29;20209;-94
2021/12/01 06:24:01;;;;;;;1.03;0.70;;;9.00;99.90;;;;;;4054895;29;20181;-93
2021/12/01 06:26:05;;;;;;;1.17;0.87;;;9.00;99.90;;;;;;4055068;29;20231;-93
2021/12/01 06:28:16;;;;;;;1.83;0.83;;;9.10;99.90;;;;;;4071545;29;20184;-93
2021/12/01 06:30:17;;;;;;;1.10;1.00;;;9.10;99.90;;;;;;4054422;29;20224;-92
2021/12/01 06:32:18;;;;;;;1.17;0.90;;;9.10;99.90;;;;;;4054617;29;20177;-95
2021/12/01 06:34:18;;;;;;;0.93;0.70;;;9.20;99.90;;;;;;4069954;29;20196;-93
2021/12/01 06:36:19;;;;;;;3.20;1.10;;;9.20;99.90;;;;;;4054392;29;20268;-93
2021/12/01 06:38:20;;;;;;;1.00;0.90;;;9.10;99.90;;;;;;4054536;29;20241;-93
2021/12/01 06:40:23;;;;;;;3.07;1.10;;;9.20;99.90;;;;;;4054690;29;20275;-93
2021/12/01 06:42:24;;;;;;;2.40;0.80;;;9.20;99.90;;;;;;4054526;29;20218;-93
2021/12/01 06:44:25;;;;;;;1.33;0.90;;;9.20;99.90;;;;;;4054310;29;20280;-93
2021/12/01 06:46:29;;;;;;;0.80;0.67;;;9.20;99.90;;;;;;4069614;29;20601;-92
2021/12/01 06:48:30;;;;;;;2.80;1.10;;;9.20;99.90;;;;;;4069655;29;20728;-92
2021/12/01 06:50:31;;;;;;;1.53;0.90;;;9.30;99.90;;;;;;4054086;29;20181;-92
2021/12/01 06:52:32;;;;;;;0.77;0.77;;;9.20;99.90;;;;;;4054043;29;20515;-92
2021/12/01 06:54:32;;;;;;;1.40;0.70;;;9.20;99.90;;;;;;4054021;29;20208;-92
2021/12/01 06:56:33;;;;;;;1.67;0.80;;;9.20;99.90;;;;;;4054018;29;20213;-93
2021/12/01 06:58:34;;;;;;;2.83;0.80;;;9.30;99.90;;;;;;4054020;29;20177;-92
2021/12/01 07:00:35;;;;;;;1.02;0.70;;;9.30;99.90;;;;;;4069346;29;20176;-92
2021/12/01 07:02:36;;;;;;;1.38;0.80;;;9.40;99.90;;;;;;4053627;29;20240;-94
2021/12/01 07:04:37;;;;;;;0.90;0.70;;;9.40;99.90;;;;;;4069551;29;20204;-92
2021/12/01 07:06:38;;;;;;;3.97;1.03;;;9.50;99.90;;;;;;4053875;29;20231;-92
2021/12/01 07:08:39;;;;;;;1.10;0.70;;;9.40;99.90;;;;;;4054027;29;20200;-92
2021/12/01 07:10:40;;;;;;;1.08;0.90;;;9.40;99.90;;;;;;4053827;29;20180;-92
2021/12/01 07:12:41;;;;;;;2.85;0.90;;;9.50;99.90;;;;;;4053953;29;20650;-93
2021/12/01 07:14:42;;;;;;;2.40;1.00;;;9.60;99.90;;;;;;4053940;29;20208;-93
2021/12/01 07:16:43;;;;;;;1.52;0.77;;;9.60;99.90;;;;;;4053954;29;20647;-93
2021/12/01 07:18:44;;;;;;;0.70;0.70;;;9.50;99.90;;;;;;4054032;29;20233;-93
2021/12/01 07:20:45;;;;;;;1.63;0.93;;;9.60;99.90;;;;;;4053647;29;20181;-93
2021/12/01 07:22:46;;;;;;;0.82;0.80;;;9.60;99.90;;;;;;4053306;29;20256;-92
2021/12/01 07:24:47;;;;;;;1.27;0.93;;;9.60;99.90;;;;;;4053514;29;20599;-93
2021/12/01 07:26:48;;;;;;;1.10;0.80;;;9.60;99.90;;;;;;4069261;29;20180;-92
2021/12/01 07:28:49;;;;;;;1.15;1.00;;;9.60;99.90;;;;;;4053503;29;20176;-92
2021/12/01 07:30:49;;;;;;;1.10;0.80;;;9.60;99.90;;;;;;4053508;29;20177;-92
2021/12/01 07:32:50;;;;;;;3.50;1.00;;;9.60;99.90;;;;;;4054141;29;20216;-91
2021/12/01 07:34:51;;;;;;;1.77;0.82;;;9.60;99.90;;;;;;4053580;29;20659;-91
2021/12/01 07:36:52;;;;;;;1.25;1.00;;;9.60;99.90;;;;;;4069070;29;20499;-92
2021/12/01 07:38:53;;;;;;;0.82;0.80;;;9.70;99.90;;;;;;4053448;29;20196;-93
2021/12/01 07:40:54;;;;;;;1.13;0.80;;;9.70;99.90;;;;;;4069121;29;20176;-92
2021/12/01 07:42:55;;;;;;;0.60;0.60;;;9.60;99.90;;;;;;4053362;29;20218;-92
2021/12/01 07:44:56;;;;;;;0.98;0.70;;;9.70;99.90;;;;;;4053550;29;20287;-94
2021/12/01 07:46:56;;;;;;;1.20;0.60;;;9.80;99.90;;;;;;4053082;29;20546;-94
2021/12/01 07:48:57;;;;;;;1.00;0.60;;;9.80;99.90;;;;;;4053410;29;20181;-92
2021/12/01 07:50:58;;;;;;;0.60;0.60;;;9.90;99.90;;;;;;4068670;29;20274;-91
2021/12/01 07:52:59;;;;;;;0.85;0.65;;;9.90;99.90;;;;;;4053366;29;20295;-91
2021/12/01 07:54:59;;;;;;;0.80;0.70;;;9.80;99.90;;;;;;4053144;29;20260;-92
2021/12/01 07:57:01;;;;;;;1.90;0.70;;;9.80;99.90;;;;;;4053268;29;20547;-95
2021/12/01 07:59:02;;;;;;;1.05;0.50;;;9.80;99.90;;;;;;4068917;29;20182;-91
2021/12/01 08:01:03;;;;;;;1.30;0.50;;;9.80;99.90;;;;;;4053593;29;20617;-93
2021/12/01 08:03:04;;;;;;;2.63;0.50;;;9.80;99.90;;;;;;4068871;29;20716;-91
2021/12/01 08:05:06;;;;;;;0.65;0.30;;;9.90;99.90;;;;;;4052968;29;20196;-93
2021/12/01 08:07:07;;;;;;;1.30;0.68;;;9.90;99.90;;;;;;4052828;29;20728;-96
2021/12/01 08:09:08;;;;;;;0.68;0.40;;;9.90;99.90;;;;;;4052947;29;20177;-92
2021/12/01 08:11:09;;;;;;;0.38;0.30;;;9.90;99.90;;;;;;4053171;29;20255;-93
2021/12/01 08:13:10;;;;;;;0.50;0.40;;;9.90;99.90;;;;;;4053055;29;20267;-93
2021/12/01 08:15:10;;;;;;;0.60;0.30;;;10.00;99.90;;;;;;4052967;29;20193;-92
2021/12/01 08:17:11;;;;;;;0.88;0.30;;;10.00;99.90;;;;;;4053046;29;20298;-92
2021/12/01 08:19:12;;;;;;;1.48;0.40;;;10.00;99.90;;;;;;4053091;29;20580;-92
2021/12/01 08:21:13;;;;;;;2.30;0.30;;;10.00;99.90;;;;;;4052944;29;20663;-92
2021/12/01 08:23:14;;;;;;;1.55;0.40;;;10.10;99.90;;;;;;4052828;29;20217;-92
2021/12/01 08:25:15;;;;;;;2.25;0.50;;;10.00;99.90;;;;;;4053038;29;20302;-93
2021/12/01 08:27:16;;;;;;;1.77;0.47;;;10.10;99.90;;;;;;4053308;29;20602;-93
2021/12/01 08:29:17;;;;;;;3.80;0.45;;;10.10;99.90;;;;;;4052849;29;20276;-92
2021/12/01 08:31:19;;;;;;;0.80;0.43;;;10.30;99.90;;;;;;4068601;29;20180;-92
2021/12/01 08:33:20;;;;;;;0.93;0.60;;;10.20;99.90;;;;;;4053205;29;20181;-96
2021/12/01 08:35:21;;;;;;;2.08;0.88;;;10.20;99.90;;;;;;4071634;29;20207;-92
2021/12/01 08:37:22;;;;;;;1.15;0.45;;;10.20;99.90;;;;;;4056071;29;20172;-93
2021/12/01 08:39:23;;;;;;;0.88;0.45;;;10.10;99.90;;;;;;4056228;29;20196;-93
2021/12/01 08:41:24;;;;;;;2.63;2.03;;;10.20;99.90;;;;;;4055866;29;20211;-92
2021/12/01 08:43:25;;;;;;;11.02;8.68;;;10.10;99.90;;;;;;4071350;29;20216;-92
2021/12/01 08:45:26;;;;;;;5.80;5.28;;;10.10;99.90;;;;;;4056031;29;20197;-93
2021/12/01 08:47:29;;;;;;;2.17;1.38;;;10.10;99.90;;;;;;4055805;29;20742;-92
2021/12/01 08:49:30;;;;;;;1.17;0.82;;;10.00;99.90;;;;;;4071865;29;20179;-92
2021/12/01 08:51:31;;;;;;;1.88;1.25;;;10.00;99.90;;;;;;4055819;29;20191;-92
2021/12/01 08:53:35;;;;;;;3.05;2.33;;;10.00;99.90;;;;;;4071504;29;20263;-92
2021/12/01 08:55:40;;;;;;;0.88;0.47;;;9.90;99.90;;;;;;4055677;29;20704;-92
2021/12/01 08:57:42;;;;;;;1.17;0.73;;;10.00;99.90;;;;;;4071611;29;20182;-92
2021/12/01 08:59:44;;;;;;;1.00;0.65;;;10.00;99.90;;;;;;4055888;29;20212;-94
2021/12/01 09:01:45;;;;;;;1.02;0.75;;;10.10;99.90;;;;;;4071324;29;20176;-92
2021/12/01 09:03:46;;;;;;;1.90;0.90;;;10.20;99.90;;;;;;4055674;29;20662;-92
2021/12/01 09:05:48;;;;;;;1.70;1.02;;;10.20;99.90;;;;;;4055732;29;20604;-92
2021/12/01 09:07:48;;;;;;;3.25;1.20;;;10.30;99.90;;;;;;4056073;29;20177;-93
2021/12/01 09:09:49;;;;;;;9.02;6.30;;;10.40;99.90;;;;;;4055603;29;20254;-94
2021/12/01 09:11:52;;;;;;;10.50;8.82;;;10.40;99.90;;;;;;4055697;29;20685;-92
2021/12/01 09:13:53;;;;;;;6.20;2.90;;;10.30;99.90;;;;;;4055554;29;20184;-93
2021/12/01 09:15:55;;;;;;;7.07;4.93;;;10.40;99.90;;;;;;4055466;29;20180;-92
2021/12/01 09:17:57;;;;;;;3.42;3.00;;;10.40;99.90;;;;;;4071345;29;20172;-92
2021/12/01 09:19:58;;;;;;;3.58;2.60;;;10.20;99.90;;;;;;4056269;29;20177;-92
2021/12/01 09:21:58;;;;;;;4.63;3.58;;;10.20;99.90;;;;;;4059982;29;20204;-93
2021/12/01 09:23:59;;;;;;;6.32;4.43;;;10.20;99.90;;;;;;4064707;29;20196;-89
2021/12/01 09:26:00;;;;;;;5.20;2.72;;;10.30;99.90;;;;;;4056405;29;20630;-92
2021/12/01 09:28:01;;;;;;;4.13;1.55;;;10.40;99.90;;;;;;4055572;29;20181;-91
2021/12/01 09:30:03;;;;;;;1.83;0.57;;;10.40;99.90;;;;;;4055309;29;20237;-91
2021/12/01 09:32:05;;;;;;;2.95;0.50;;;10.50;99.90;;;;;;4071099;29;20184;-91
2021/12/01 09:34:06;;;;;;;1.15;0.65;;;10.40;99.90;;;;;;4071175;29;20287;-92
2021/12/01 09:36:07;;;;;;;2.47;0.50;;;10.40;99.90;;;;;;4055092;29;20222;-93
2021/12/01 09:38:13;;;;;;;2.53;0.60;;;10.40;99.90;;;;;;4055368;29;20178;-91
2021/12/01 09:40:17;;;;;;;2.25;0.50;;;10.40;99.90;;;;;;4071168;29;20184;-91
2021/12/01 09:42:18;;;;;;;3.95;0.60;;;10.40;99.90;;;;;;4070814;29;20585;-93
2021/12/01 09:44:19;;;;;;;3.67;0.60;;;10.40;99.90;;;;;;4054869;29;20190;-92
2021/12/01 09:46:20;;;;;;;5.80;0.85;;;10.30;99.90;;;;;;4054682;29;20185;-93
2021/12/01 09:48:22;;;;;;;3.97;0.80;;;10.30;99.90;;;;;;4055504;29;20263;-91
2021/12/01 09:50:23;;;;;;;1.98;0.38;;;10.30;99.90;;;;;;4054947;29;20184;-91
2021/12/01 09:52:24;;;;;;;2.35;0.60;;;10.30;99.90;;;;;;4055049;29;20177;-91
2021/12/01 09:54:25;;;;;;;4.60;0.50;;;10.40;99.90;;;;;;4070502;29;20357;-91
2021/12/01 09:56:26;;;;;;;1.95;0.57;;;10.30;99.90;;;;;;4055037;29;20645;-92
2021/12/01 09:58:31;;;;;;;0.98;0.30;;;10.20;99.90;;;;;;4055132;29;20184;-96
2021/12/01 10:00:35;;;;;;;3.45;0.55;;;10.00;99.90;;;;;;4055041;29;20189;-93
2021/12/01 10:02:36;;;;;;;6.07;1.10;;;9.80;99.90;;;;;;4054863;29;20311;-92
2021/12/01 10:04:39;;;;;;;2.87;0.57;;;9.90;99.90;;;;;;4070494;29;20204;-93
2021/12/01 10:06:40;;;;;;;5.45;0.98;;;9.80;99.90;;;;;;4070550;29;20180;-94
2021/12/01 10:08:53;;;;;;;7.15;0.95;;;9.90;99.90;;;;;;4054948;29;20181;-92
2021/12/01 10:10:58;;;;;;;4.80;0.70;;;10.00;99.90;;;;;;4054911;29;20673;-93
2021/12/01 10:12:59;;;;;;;6.13;0.63;;;10.10;99.90;;;;;;4054924;29;20673;-94
2021/12/01 10:15:00;;;;;;;5.55;0.80;;;10.00;99.90;;;;;;4070197;29;20188;-93
2021/12/01 10:17:00;;;;;;;6.00;0.80;;;10.00;99.90;;;;;;4055159;29;20225;-93
2021/12/01 10:19:08;;;;;;;8.45;0.80;;;10.10;99.90;;;;;;4054871;29;20184;-93
2021/12/01 10:21:17;;;;;;;7.82;1.08;;;10.20;99.90;;;;;;4070533;29;20220;-92
2021/12/01 10:23:18;;;;;;;4.00;1.00;;;10.00;99.90;;;;;;4054850;29;20337;-93
2021/12/01 10:25:29;;;;;;;6.20;1.10;;;10.00;99.90;;;;;;4070449;29;20200;-94
2021/12/01 10:27:37;;;;;;;11.05;1.38;;;10.00;99.90;;;;;;4054467;29;20591;-93
2021/12/01 10:29:46;;;;;;;7.38;0.93;;;9.90;99.90;;;;;;4054403;29;20700;-94
2021/12/01 10:31:55;;;;;;;7.93;1.05;;;10.00;99.90;;;;;;4054883;29;20188;-93
2021/12/01 10:34:15;;;;;;;9.27;0.90;;;10.10;99.90;;;;;;4054756;29;20181;-93
2021/12/01 10:36:16;;;;;;;6.30;0.90;;;10.10;99.90;;;;;;4054452;29;20187;-93
2021/12/01 10:38:29;;;;;;;4.05;0.70;;;10.00;99.90;;;;;;4070292;29;20179;-92
2021/12/01 10:40:30;;;;;;;6.53;0.65;;;10.10;99.90;;;;;;4071313;29;20169;-92
2021/12/01 10:42:31;;;;;;;12.55;0.90;;;10.10;99.90;;;;;;4054557;29;20226;-92
2021/12/01 10:44:34;;;;;;;9.00;0.93;;;10.00;99.90;;;;;;4055084;29;20193;-93
2021/12/01 10:46:55;;;;;;;6.55;0.88;;;10.00;99.90;;;;;;4054738;29;20606;-94
2021/12/01 10:49:06;;;;;;;6.63;0.77;;;10.10;99.90;;;;;;4053400;29;20188;-91